sensor_id;sensor_type;location;lat;lon;timestamp;P1;durP1;ratioP1;P2;durP2;ratioP2
73107;SDS011;61559;50.476;15.588;2023-04-24T00:02:21;6.60;;;3.70;;
73107;SDS011;61559;50.476;15.588;2023-04-24T00:04:52;6.60;;;3.80;;
73107;SDS011;61559;50.476;15.588;2023-04-24T00:07:24;6.90;;;4.00;;
73107;SDS011;61559;50.476;15.588;2023-04-24T00:09:55;5.60;;;3.50;;
73107;SDS011;61559;50.476;15.588;2023-04-24T00:12:29;5.00;;;3.70;;
73107;SDS011;61559;50.476;15.588;2023-04-24T00:15:00;6.40;;;3.50;;
73107;SDS011;61559;50.476;15.588;2023-04-24T00:17:32;6.00;;;4.10;;
73107;SDS011;61559;50.476;15.588;2023-04-24T00:20:03;6.90;;;4.30;;
73107;SDS011;61559;50.476;15.588;2023-04-24T00:22:36;5.90;;;3.90;;
73107;SDS011;61559;50.476;15.588;2023-04-24T00:25:08;5.50;;;4.00;;
73107;SDS011;61559;50.476;15.588;2023-04-24T00:27:39;6.60;;;4.00;;
73107;SDS011;61559;50.476;15.588;2023-04-24T00:30:11;6.30;;;4.50;;
73107;SDS011;61559;50.476;15.588;2023-04-24T00:32:42;6.50;;;4.00;;
73107;SDS011;61559;50.476;15.588;2023-04-24T00:35:13;5.40;;;3.60;;
73107;SDS011;61559;50.476;15.588;2023-04-24T00:40:14;6.40;;;3.80;;
73107;SDS011;61559;50.476;15.588;2023-04-24T00:42:51;5.50;;;3.40;;
73107;SDS011;61559;50.476;15.588;2023-04-24T00:45:22;9.10;;;4.40;;
73107;SDS011;61559;50.476;15.588;2023-04-24T00:47:54;6.00;;;3.60;;
73107;SDS011;61559;50.476;15.588;2023-04-24T00:50:25;4.70;;;3.40;;
73107;SDS011;61559;50.476;15.588;2023-04-24T00:52:57;5.90;;;3.60;;
73107;SDS011;61559;50.476;15.588;2023-04-24T00:55:29;5.40;;;3.60;;
73107;SDS011;61559;50.476;15.588;2023-04-24T00:58:08;6.40;;;3.70;;
73107;SDS011;61559;50.476;15.588;2023-04-24T01:00:40;6.50;;;3.60;;
73107;SDS011;61559;50.476;15.588;2023-04-24T01:03:12;7.00;;;3.80;;
73107;SDS011;61559;50.476;15.588;2023-04-24T01:05:45;8.20;;;4.30;;
73107;SDS011;61559;50.476;15.588;2023-04-24T01:08:17;6.90;;;4.10;;
73107;SDS011;61559;50.476;15.588;2023-04-24T01:10:48;5.60;;;3.50;;
73107;SDS011;61559;50.476;15.588;2023-04-24T01:13:22;5.70;;;3.70;;
73107;SDS011;61559;50.476;15.588;2023-04-24T01:15:53;8.30;;;4.20;;
73107;SDS011;61559;50.476;15.588;2023-04-24T01:18:24;6.20;;;3.80;;
73107;SDS011;61559;50.476;15.588;2023-04-24T01:20:57;7.90;;;4.40;;
73107;SDS011;61559;50.476;15.588;2023-04-24T01:23:33;8.40;;;5.00;;
73107;SDS011;61559;50.476;15.588;2023-04-24T01:26:04;7.10;;;4.10;;
73107;SDS011;61559;50.476;15.588;2023-04-24T01:28:35;8.50;;;4.90;;
73107;SDS011;61559;50.476;15.588;2023-04-24T01:31:07;8.00;;;4.20;;
73107;SDS011;61559;50.476;15.588;2023-04-24T01:33:39;7.40;;;4.00;;
73107;SDS011;61559;50.476;15.588;2023-04-24T01:36:11;5.50;;;3.30;;
73107;SDS011;61559;50.476;15.588;2023-04-24T01:38:49;5.80;;;3.50;;
73107;SDS011;61559;50.476;15.588;2023-04-24T01:41:20;4.70;;;3.60;;
73107;SDS011;61559;50.476;15.588;2023-04-24T01:43:51;7.10;;;4.00;;
73107;SDS011;61559;50.476;15.588;2023-04-24T01:46:22;6.20;;;3.50;;
73107;SDS011;61559;50.476;15.588;2023-04-24T01:48:54;5.20;;;3.50;;
73107;SDS011;61559;50.476;15.588;2023-04-24T01:51:26;7.00;;;3.90;;
73107;SDS011;61559;50.476;15.588;2023-04-24T01:53:58;6.10;;;3.50;;
73107;SDS011;61559;50.476;15.588;2023-04-24T01:56:29;5.70;;;3.30;;
73107;SDS011;61559;50.476;15.588;2023-04-24T01:59:03;7.10;;;3.50;;
73107;SDS011;61559;50.476;15.588;2023-04-24T02:01:35;5.80;;;3.80;;
73107;SDS011;61559;50.476;15.588;2023-04-24T02:04:08;6.00;;;4.00;;
73107;SDS011;61559;50.476;15.588;2023-04-24T02:06:39;6.40;;;3.80;;
73107;SDS011;61559;50.476;15.588;2023-04-24T02:09:10;5.90;;;3.90;;
73107;SDS011;61559;50.476;15.588;2023-04-24T02:11:42;6.00;;;3.70;;
73107;SDS011;61559;50.476;15.588;2023-04-24T02:14:13;5.90;;;3.80;;
73107;SDS011;61559;50.476;15.588;2023-04-24T02:16:44;6.00;;;3.60;;
73107;SDS011;61559;50.476;15.588;2023-04-24T02:19:16;6.30;;;3.60;;
73107;SDS011;61559;50.476;15.588;2023-04-24T02:21:47;6.40;;;3.40;;
73107;SDS011;61559;50.476;15.588;2023-04-24T02:24:18;9.00;;;4.40;;
73107;SDS011;61559;50.476;15.588;2023-04-24T02:26:49;6.80;;;3.70;;
73107;SDS011;61559;50.476;15.588;2023-04-24T02:29:23;6.70;;;4.00;;
73107;SDS011;61559;50.476;15.588;2023-04-24T02:31:54;6.40;;;4.00;;
73107;SDS011;61559;50.476;15.588;2023-04-24T02:34:26;6.60;;;3.70;;
73107;SDS011;61559;50.476;15.588;2023-04-24T02:36:58;5.40;;;3.20;;
73107;SDS011;61559;50.476;15.588;2023-04-24T02:39:29;4.80;;;3.40;;
73107;SDS011;61559;50.476;15.588;2023-04-24T02:42:00;5.10;;;3.40;;
73107;SDS011;61559;50.476;15.588;2023-04-24T02:44:31;8.50;;;4.50;;
73107;SDS011;61559;50.476;15.588;2023-04-24T02:47:03;8.10;;;4.10;;
73107;SDS011;61559;50.476;15.588;2023-04-24T02:49:35;6.40;;;3.60;;
73107;SDS011;61559;50.476;15.588;2023-04-24T02:54:35;5.80;;;3.40;;
73107;SDS011;61559;50.476;15.588;2023-04-24T02:59:36;5.10;;;3.40;;
73107;SDS011;61559;50.476;15.588;2023-04-24T03:02:08;5.20;;;3.50;;
73107;SDS011;61559;50.476;15.588;2023-04-24T03:04:42;5.00;;;3.40;;
73107;SDS011;61559;50.476;15.588;2023-04-24T03:07:13;6.20;;;3.80;;
73107;SDS011;61559;50.476;15.588;2023-04-24T03:09:44;6.20;;;3.60;;
73107;SDS011;61559;50.476;15.588;2023-04-24T03:12:15;6.30;;;3.90;;
73107;SDS011;61559;50.476;15.588;2023-04-24T03:14:47;7.80;;;4.60;;
73107;SDS011;61559;50.476;15.588;2023-04-24T03:19:47;6.10;;;3.40;;
73107;SDS011;61559;50.476;15.588;2023-04-24T03:22:18;7.70;;;4.10;;
73107;SDS011;61559;50.476;15.588;2023-04-24T03:27:18;5.70;;;3.90;;
73107;SDS011;61559;50.476;15.588;2023-04-24T03:29:49;6.90;;;4.20;;
73107;SDS011;61559;50.476;15.588;2023-04-24T03:32:23;7.10;;;4.00;;
73107;SDS011;61559;50.476;15.588;2023-04-24T03:34:55;7.50;;;4.00;;
73107;SDS011;61559;50.476;15.588;2023-04-24T03:37:26;7.30;;;3.90;;
73107;SDS011;61559;50.476;15.588;2023-04-24T03:39:57;5.90;;;3.90;;
73107;SDS011;61559;50.476;15.588;2023-04-24T03:42:29;6.80;;;4.20;;
73107;SDS011;61559;50.476;15.588;2023-04-24T03:45:00;8.20;;;4.40;;
73107;SDS011;61559;50.476;15.588;2023-04-24T03:47:31;6.40;;;4.50;;
73107;SDS011;61559;50.476;15.588;2023-04-24T03:55:01;8.10;;;5.00;;
73107;SDS011;61559;50.476;15.588;2023-04-24T03:57:34;10.90;;;4.30;;
73107;SDS011;61559;50.476;15.588;2023-04-24T04:00:06;6.80;;;4.10;;
73107;SDS011;61559;50.476;15.588;2023-04-24T04:02:38;9.10;;;4.80;;
73107;SDS011;61559;50.476;15.588;2023-04-24T04:05:10;5.60;;;4.20;;
73107;SDS011;61559;50.476;15.588;2023-04-24T04:07:41;8.10;;;3.70;;
73107;SDS011;61559;50.476;15.588;2023-04-24T04:12:41;5.50;;;3.50;;
73107;SDS011;61559;50.476;15.588;2023-04-24T04:17:42;5.90;;;3.50;;
73107;SDS011;61559;50.476;15.588;2023-04-24T04:20:14;5.10;;;3.10;;
73107;SDS011;61559;50.476;15.588;2023-04-24T04:22:45;4.60;;;3.40;;
73107;SDS011;61559;50.476;15.588;2023-04-24T04:25:16;13.90;;;6.80;;
73107;SDS011;61559;50.476;15.588;2023-04-24T04:27:48;16.60;;;7.50;;
73107;SDS011;61559;50.476;15.588;2023-04-24T04:30:20;10.50;;;5.50;;
73107;SDS011;61559;50.476;15.588;2023-04-24T04:32:51;7.00;;;4.40;;
73107;SDS011;61559;50.476;15.588;2023-04-24T04:35:22;8.80;;;5.30;;
73107;SDS011;61559;50.476;15.588;2023-04-24T04:37:54;14.00;;;7.00;;
73107;SDS011;61559;50.476;15.588;2023-04-24T04:40:27;15.30;;;7.10;;
73107;SDS011;61559;50.476;15.588;2023-04-24T04:45:27;13.80;;;6.00;;
73107;SDS011;61559;50.476;15.588;2023-04-24T04:48:00;11.40;;;6.10;;
73107;SDS011;61559;50.476;15.588;2023-04-24T04:50:32;11.30;;;6.00;;
73107;SDS011;61559;50.476;15.588;2023-04-24T04:53:03;12.60;;;5.50;;
73107;SDS011;61559;50.476;15.588;2023-04-24T04:55:35;7.30;;;4.90;;
73107;SDS011;61559;50.476;15.588;2023-04-24T04:58:07;7.50;;;4.70;;
73107;SDS011;61559;50.476;15.588;2023-04-24T05:00:41;10.30;;;6.00;;
73107;SDS011;61559;50.476;15.588;2023-04-24T05:03:12;7.60;;;4.80;;
73107;SDS011;61559;50.476;15.588;2023-04-24T05:05:48;8.50;;;5.00;;
73107;SDS011;61559;50.476;15.588;2023-04-24T05:10:52;5.90;;;3.80;;
73107;SDS011;61559;50.476;15.588;2023-04-24T05:13:23;5.40;;;3.60;;
73107;SDS011;61559;50.476;15.588;2023-04-24T05:16:06;6.20;;;4.20;;
73107;SDS011;61559;50.476;15.588;2023-04-24T05:18:37;5.40;;;3.90;;
73107;SDS011;61559;50.476;15.588;2023-04-24T05:21:09;5.10;;;3.70;;
73107;SDS011;61559;50.476;15.588;2023-04-24T05:23:40;4.90;;;3.50;;
73107;SDS011;61559;50.476;15.588;2023-04-24T05:26:11;6.90;;;3.90;;
73107;SDS011;61559;50.476;15.588;2023-04-24T05:28:42;6.60;;;4.30;;
73107;SDS011;61559;50.476;15.588;2023-04-24T05:31:13;6.80;;;4.40;;
73107;SDS011;61559;50.476;15.588;2023-04-24T05:33:45;9.10;;;4.30;;
73107;SDS011;61559;50.476;15.588;2023-04-24T05:36:18;6.60;;;4.10;;
73107;SDS011;61559;50.476;15.588;2023-04-24T05:38:49;6.60;;;4.70;;
73107;SDS011;61559;50.476;15.588;2023-04-24T05:41:20;6.80;;;4.70;;
73107;SDS011;61559;50.476;15.588;2023-04-24T05:43:51;7.80;;;4.40;;
73107;SDS011;61559;50.476;15.588;2023-04-24T05:46:22;7.50;;;5.20;;
73107;SDS011;61559;50.476;15.588;2023-04-24T05:48:53;8.70;;;5.30;;
73107;SDS011;61559;50.476;15.588;2023-04-24T05:51:24;10.70;;;6.10;;
73107;SDS011;61559;50.476;15.588;2023-04-24T05:53:55;12.80;;;6.10;;
73107;SDS011;61559;50.476;15.588;2023-04-24T05:56:26;9.30;;;6.40;;
73107;SDS011;61559;50.476;15.588;2023-04-24T05:58:57;13.00;;;7.80;;
73107;SDS011;61559;50.476;15.588;2023-04-24T06:01:29;14.00;;;7.50;;
73107;SDS011;61559;50.476;15.588;2023-04-24T06:04:00;17.60;;;9.20;;
73107;SDS011;61559;50.476;15.588;2023-04-24T06:06:32;14.80;;;7.80;;
73107;SDS011;61559;50.476;15.588;2023-04-24T06:09:04;9.30;;;6.00;;
73107;SDS011;61559;50.476;15.588;2023-04-24T06:11:36;9.70;;;6.20;;
73107;SDS011;61559;50.476;15.588;2023-04-24T06:14:07;10.40;;;6.30;;
73107;SDS011;61559;50.476;15.588;2023-04-24T06:16:40;8.70;;;5.70;;
73107;SDS011;61559;50.476;15.588;2023-04-24T06:19:11;8.50;;;6.00;;
73107;SDS011;61559;50.476;15.588;2023-04-24T06:21:43;10.30;;;6.00;;
73107;SDS011;61559;50.476;15.588;2023-04-24T06:24:15;11.40;;;6.40;;
73107;SDS011;61559;50.476;15.588;2023-04-24T06:26:46;8.20;;;6.10;;
73107;SDS011;61559;50.476;15.588;2023-04-24T06:29:17;7.60;;;5.50;;
73107;SDS011;61559;50.476;15.588;2023-04-24T06:31:49;8.60;;;5.20;;
73107;SDS011;61559;50.476;15.588;2023-04-24T06:34:21;7.80;;;5.70;;
73107;SDS011;61559;50.476;15.588;2023-04-24T06:36:52;8.50;;;6.30;;
73107;SDS011;61559;50.476;15.588;2023-04-24T06:39:23;8.50;;;5.60;;
73107;SDS011;61559;50.476;15.588;2023-04-24T06:41:54;7.30;;;5.10;;
73107;SDS011;61559;50.476;15.588;2023-04-24T06:44:25;8.20;;;5.30;;
73107;SDS011;61559;50.476;15.588;2023-04-24T06:46:56;7.80;;;5.40;;
73107;SDS011;61559;50.476;15.588;2023-04-24T06:49:27;8.90;;;5.10;;
73107;SDS011;61559;50.476;15.588;2023-04-24T06:51:59;7.60;;;5.20;;
73107;SDS011;61559;50.476;15.588;2023-04-24T06:54:30;8.50;;;5.00;;
73107;SDS011;61559;50.476;15.588;2023-04-24T06:57:01;6.90;;;4.70;;
73107;SDS011;61559;50.476;15.588;2023-04-24T06:59:32;8.10;;;5.00;;
73107;SDS011;61559;50.476;15.588;2023-04-24T07:02:03;9.80;;;5.00;;
73107;SDS011;61559;50.476;15.588;2023-04-24T07:04:34;7.30;;;4.60;;
73107;SDS011;61559;50.476;15.588;2023-04-24T07:07:06;7.70;;;4.90;;
73107;SDS011;61559;50.476;15.588;2023-04-24T07:09:41;6.80;;;4.80;;
73107;SDS011;61559;50.476;15.588;2023-04-24T07:12:13;8.00;;;4.90;;
73107;SDS011;61559;50.476;15.588;2023-04-24T07:14:45;7.10;;;4.60;;
73107;SDS011;61559;50.476;15.588;2023-04-24T07:17:16;6.00;;;4.40;;
73107;SDS011;61559;50.476;15.588;2023-04-24T07:19:49;6.50;;;4.10;;
73107;SDS011;61559;50.476;15.588;2023-04-24T07:22:20;4.20;;;3.10;;
73107;SDS011;61559;50.476;15.588;2023-04-24T07:24:51;8.20;;;2.80;;
73107;SDS011;61559;50.476;15.588;2023-04-24T07:27:22;3.50;;;2.30;;
73107;SDS011;61559;50.476;15.588;2023-04-24T07:29:54;4.40;;;2.80;;
73107;SDS011;61559;50.476;15.588;2023-04-24T07:32:26;3.20;;;2.50;;
73107;SDS011;61559;50.476;15.588;2023-04-24T07:34:57;4.10;;;2.80;;
73107;SDS011;61559;50.476;15.588;2023-04-24T07:37:28;3.90;;;2.70;;
73107;SDS011;61559;50.476;15.588;2023-04-24T07:40:00;3.50;;;2.20;;
73107;SDS011;61559;50.476;15.588;2023-04-24T07:42:31;3.50;;;2.30;;
73107;SDS011;61559;50.476;15.588;2023-04-24T07:45:05;4.90;;;2.60;;
73107;SDS011;61559;50.476;15.588;2023-04-24T07:47:37;6.20;;;2.30;;
73107;SDS011;61559;50.476;15.588;2023-04-24T07:50:09;3.20;;;2.20;;
73107;SDS011;61559;50.476;15.588;2023-04-24T07:52:41;5.20;;;2.50;;
73107;SDS011;61559;50.476;15.588;2023-04-24T07:55:12;3.10;;;2.30;;
73107;SDS011;61559;50.476;15.588;2023-04-24T07:57:43;4.40;;;2.70;;
73107;SDS011;61559;50.476;15.588;2023-04-24T08:00:14;4.00;;;2.90;;
73107;SDS011;61559;50.476;15.588;2023-04-24T08:02:46;4.10;;;2.90;;
73107;SDS011;61559;50.476;15.588;2023-04-24T08:05:18;3.40;;;2.60;;
73107;SDS011;61559;50.476;15.588;2023-04-24T08:07:49;5.30;;;2.90;;
73107;SDS011;61559;50.476;15.588;2023-04-24T08:10:21;4.60;;;3.20;;
73107;SDS011;61559;50.476;15.588;2023-04-24T08:12:53;6.60;;;3.30;;
73107;SDS011;61559;50.476;15.588;2023-04-24T08:15:24;5.10;;;3.10;;
73107;SDS011;61559;50.476;15.588;2023-04-24T08:17:56;5.60;;;3.40;;
73107;SDS011;61559;50.476;15.588;2023-04-24T08:20:28;5.00;;;3.40;;
73107;SDS011;61559;50.476;15.588;2023-04-24T08:22:59;6.40;;;3.50;;
73107;SDS011;61559;50.476;15.588;2023-04-24T08:25:30;5.20;;;3.40;;
73107;SDS011;61559;50.476;15.588;2023-04-24T08:28:05;5.80;;;3.20;;
73107;SDS011;61559;50.476;15.588;2023-04-24T08:30:38;5.10;;;3.20;;
73107;SDS011;61559;50.476;15.588;2023-04-24T08:33:09;3.90;;;3.00;;
73107;SDS011;61559;50.476;15.588;2023-04-24T08:35:40;4.30;;;3.00;;
73107;SDS011;61559;50.476;15.588;2023-04-24T08:38:11;5.50;;;3.50;;
73107;SDS011;61559;50.476;15.588;2023-04-24T08:40:42;5.00;;;3.30;;
73107;SDS011;61559;50.476;15.588;2023-04-24T08:43:14;5.90;;;3.20;;
73107;SDS011;61559;50.476;15.588;2023-04-24T08:45:45;6.00;;;2.90;;
73107;SDS011;61559;50.476;15.588;2023-04-24T08:48:16;3.10;;;2.40;;
73107;SDS011;61559;50.476;15.588;2023-04-24T08:50:59;4.90;;;2.20;;
73107;SDS011;61559;50.476;15.588;2023-04-24T08:53:32;3.60;;;2.50;;
73107;SDS011;61559;50.476;15.588;2023-04-24T08:56:04;3.90;;;2.70;;
73107;SDS011;61559;50.476;15.588;2023-04-24T08:58:36;4.10;;;2.60;;
73107;SDS011;61559;50.476;15.588;2023-04-24T09:01:08;3.00;;;2.10;;
73107;SDS011;61559;50.476;15.588;2023-04-24T09:03:40;3.30;;;2.30;;
73107;SDS011;61559;50.476;15.588;2023-04-24T09:06:12;4.70;;;2.50;;
73107;SDS011;61559;50.476;15.588;2023-04-24T09:08:44;4.40;;;2.50;;
73107;SDS011;61559;50.476;15.588;2023-04-24T09:11:18;5.00;;;3.20;;
73107;SDS011;61559;50.476;15.588;2023-04-24T09:13:49;4.00;;;2.80;;
73107;SDS011;61559;50.476;15.588;2023-04-24T09:16:20;3.60;;;2.80;;
73107;SDS011;61559;50.476;15.588;2023-04-24T09:18:52;3.30;;;2.20;;
73107;SDS011;61559;50.476;15.588;2023-04-24T09:21:24;2.60;;;2.00;;
73107;SDS011;61559;50.476;15.588;2023-04-24T09:24:04;3.40;;;2.30;;
73107;SDS011;61559;50.476;15.588;2023-04-24T09:26:37;3.20;;;2.00;;
73107;SDS011;61559;50.476;15.588;2023-04-24T09:29:13;3.40;;;2.30;;
73107;SDS011;61559;50.476;15.588;2023-04-24T09:34:18;5.40;;;2.60;;
73107;SDS011;61559;50.476;15.588;2023-04-24T09:36:54;2.90;;;2.60;;
73107;SDS011;61559;50.476;15.588;2023-04-24T09:39:25;3.70;;;2.80;;
73107;SDS011;61559;50.476;15.588;2023-04-24T09:41:56;4.60;;;3.30;;
73107;SDS011;61559;50.476;15.588;2023-04-24T09:44:30;5.10;;;3.70;;
73107;SDS011;61559;50.476;15.588;2023-04-24T09:47:05;5.30;;;3.90;;
73107;SDS011;61559;50.476;15.588;2023-04-24T09:49:39;4.30;;;3.90;;
73107;SDS011;61559;50.476;15.588;2023-04-24T09:52:12;5.00;;;4.00;;
73107;SDS011;61559;50.476;15.588;2023-04-24T09:54:50;5.30;;;4.00;;
73107;SDS011;61559;50.476;15.588;2023-04-24T09:57:23;4.60;;;3.90;;
73107;SDS011;61559;50.476;15.588;2023-04-24T09:59:54;5.50;;;4.20;;
73107;SDS011;61559;50.476;15.588;2023-04-24T10:02:26;5.10;;;4.00;;
73107;SDS011;61559;50.476;15.588;2023-04-24T10:05:01;3.30;;;2.90;;
73107;SDS011;61559;50.476;15.588;2023-04-24T10:07:33;5.40;;;3.70;;
73107;SDS011;61559;50.476;15.588;2023-04-24T10:10:07;5.00;;;3.70;;
73107;SDS011;61559;50.476;15.588;2023-04-24T10:12:38;5.10;;;3.40;;
73107;SDS011;61559;50.476;15.588;2023-04-24T10:15:12;4.80;;;2.90;;
73107;SDS011;61559;50.476;15.588;2023-04-24T10:17:46;3.80;;;3.40;;
73107;SDS011;61559;50.476;15.588;2023-04-24T10:20:21;4.90;;;3.70;;
73107;SDS011;61559;50.476;15.588;2023-04-24T10:22:54;5.00;;;3.90;;
73107;SDS011;61559;50.476;15.588;2023-04-24T10:25:27;3.70;;;3.40;;
73107;SDS011;61559;50.476;15.588;2023-04-24T10:28:00;5.20;;;4.10;;
73107;SDS011;61559;50.476;15.588;2023-04-24T10:30:32;6.20;;;4.40;;
73107;SDS011;61559;50.476;15.588;2023-04-24T10:33:04;4.70;;;4.20;;
73107;SDS011;61559;50.476;15.588;2023-04-24T10:35:40;4.90;;;4.10;;
73107;SDS011;61559;50.476;15.588;2023-04-24T10:38:13;5.60;;;4.10;;
73107;SDS011;61559;50.476;15.588;2023-04-24T10:40:47;4.30;;;3.80;;
73107;SDS011;61559;50.476;15.588;2023-04-24T10:43:18;5.50;;;3.90;;
73107;SDS011;61559;50.476;15.588;2023-04-24T10:46:01;4.40;;;3.90;;
73107;SDS011;61559;50.476;15.588;2023-04-24T10:48:33;5.50;;;3.20;;
73107;SDS011;61559;50.476;15.588;2023-04-24T10:51:04;5.50;;;3.70;;
73107;SDS011;61559;50.476;15.588;2023-04-24T10:53:40;4.80;;;3.80;;
73107;SDS011;61559;50.476;15.588;2023-04-24T10:56:11;2.70;;;2.50;;
73107;SDS011;61559;50.476;15.588;2023-04-24T10:58:45;4.40;;;2.80;;
73107;SDS011;61559;50.476;15.588;2023-04-24T11:01:27;4.20;;;3.20;;
73107;SDS011;61559;50.476;15.588;2023-04-24T11:04:01;4.00;;;2.60;;
73107;SDS011;61559;50.476;15.588;2023-04-24T11:06:33;4.50;;;3.30;;
73107;SDS011;61559;50.476;15.588;2023-04-24T11:09:06;3.60;;;2.90;;
73107;SDS011;61559;50.476;15.588;2023-04-24T11:11:43;5.00;;;3.20;;
73107;SDS011;61559;50.476;15.588;2023-04-24T11:14:16;4.90;;;3.60;;
73107;SDS011;61559;50.476;15.588;2023-04-24T11:16:52;5.30;;;3.40;;
73107;SDS011;61559;50.476;15.588;2023-04-24T11:19:25;4.40;;;3.50;;
73107;SDS011;61559;50.476;15.588;2023-04-24T11:21:59;4.00;;;3.20;;
73107;SDS011;61559;50.476;15.588;2023-04-24T11:24:32;3.60;;;3.30;;
73107;SDS011;61559;50.476;15.588;2023-04-24T11:27:11;4.80;;;4.00;;
73107;SDS011;61559;50.476;15.588;2023-04-24T11:29:45;6.00;;;4.30;;
73107;SDS011;61559;50.476;15.588;2023-04-24T11:32:19;3.70;;;3.30;;
73107;SDS011;61559;50.476;15.588;2023-04-24T11:34:55;4.30;;;3.90;;
73107;SDS011;61559;50.476;15.588;2023-04-24T11:37:28;5.60;;;3.70;;
73107;SDS011;61559;50.476;15.588;2023-04-24T11:40:03;6.20;;;3.40;;
73107;SDS011;61559;50.476;15.588;2023-04-24T11:42:36;4.30;;;3.50;;
73107;SDS011;61559;50.476;15.588;2023-04-24T11:45:09;3.90;;;3.30;;
73107;SDS011;61559;50.476;15.588;2023-04-24T11:47:41;4.10;;;3.70;;
73107;SDS011;61559;50.476;15.588;2023-04-24T11:50:14;3.60;;;3.30;;
73107;SDS011;61559;50.476;15.588;2023-04-24T11:52:47;4.20;;;3.30;;
73107;SDS011;61559;50.476;15.588;2023-04-24T11:55:24;4.40;;;3.70;;
73107;SDS011;61559;50.476;15.588;2023-04-24T11:57:58;3.70;;;2.60;;
73107;SDS011;61559;50.476;15.588;2023-04-24T12:00:30;4.00;;;3.60;;
73107;SDS011;61559;50.476;15.588;2023-04-24T12:03:04;3.90;;;3.30;;
73107;SDS011;61559;50.476;15.588;2023-04-24T12:05:37;3.90;;;3.30;;
73107;SDS011;61559;50.476;15.588;2023-04-24T12:08:10;7.20;;;4.40;;
73107;SDS011;61559;50.476;15.588;2023-04-24T12:10:41;4.50;;;4.10;;
73107;SDS011;61559;50.476;15.588;2023-04-24T12:13:12;4.70;;;3.90;;
73107;SDS011;61559;50.476;15.588;2023-04-24T12:15:44;2.50;;;2.00;;
73107;SDS011;61559;50.476;15.588;2023-04-24T12:18:15;3.10;;;2.30;;
73107;SDS011;61559;50.476;15.588;2023-04-24T12:20:46;5.30;;;2.20;;
73107;SDS011;61559;50.476;15.588;2023-04-24T12:23:28;4.40;;;2.90;;
73107;SDS011;61559;50.476;15.588;2023-04-24T12:26:04;5.60;;;3.10;;
73107;SDS011;61559;50.476;15.588;2023-04-24T12:28:36;4.30;;;3.30;;
73107;SDS011;61559;50.476;15.588;2023-04-24T12:31:08;3.50;;;3.10;;
73107;SDS011;61559;50.476;15.588;2023-04-24T12:33:39;3.30;;;2.60;;
73107;SDS011;61559;50.476;15.588;2023-04-24T12:36:11;3.10;;;2.50;;
73107;SDS011;61559;50.476;15.588;2023-04-24T12:38:43;4.20;;;3.00;;
73107;SDS011;61559;50.476;15.588;2023-04-24T12:41:14;3.80;;;2.80;;
73107;SDS011;61559;50.476;15.588;2023-04-24T12:43:53;4.70;;;3.00;;
73107;SDS011;61559;50.476;15.588;2023-04-24T12:46:25;10.50;;;9.40;;
73107;SDS011;61559;50.476;15.588;2023-04-24T12:48:56;34.00;;;25.20;;
73107;SDS011;61559;50.476;15.588;2023-04-24T12:51:27;11.80;;;7.60;;
73107;SDS011;61559;50.476;15.588;2023-04-24T12:53:59;11.40;;;8.50;;
73107;SDS011;61559;50.476;15.588;2023-04-24T12:56:30;3.80;;;3.30;;
73107;SDS011;61559;50.476;15.588;2023-04-24T12:59:01;4.50;;;3.30;;
73107;SDS011;61559;50.476;15.588;2023-04-24T13:01:32;9.90;;;6.60;;
73107;SDS011;61559;50.476;15.588;2023-04-24T13:04:04;5.10;;;3.90;;
73107;SDS011;61559;50.476;15.588;2023-04-24T13:06:36;4.10;;;2.60;;
73107;SDS011;61559;50.476;15.588;2023-04-24T13:09:07;7.80;;;3.70;;
73107;SDS011;61559;50.476;15.588;2023-04-24T13:11:38;10.20;;;5.10;;
73107;SDS011;61559;50.476;15.588;2023-04-24T13:14:09;9.50;;;5.30;;
73107;SDS011;61559;50.476;15.588;2023-04-24T13:16:40;3.70;;;3.00;;
73107;SDS011;61559;50.476;15.588;2023-04-24T13:19:11;3.20;;;2.70;;
73107;SDS011;61559;50.476;15.588;2023-04-24T13:21:43;2.10;;;1.90;;
73107;SDS011;61559;50.476;15.588;2023-04-24T13:24:13;4.30;;;2.40;;
73107;SDS011;61559;50.476;15.588;2023-04-24T13:26:45;3.30;;;2.40;;
73107;SDS011;61559;50.476;15.588;2023-04-24T13:29:16;2.70;;;2.40;;
73107;SDS011;61559;50.476;15.588;2023-04-24T13:31:49;3.10;;;2.40;;
73107;SDS011;61559;50.476;15.588;2023-04-24T13:34:27;2.60;;;2.10;;
73107;SDS011;61559;50.476;15.588;2023-04-24T13:36:58;2.50;;;2.30;;
73107;SDS011;61559;50.476;15.588;2023-04-24T13:39:31;2.80;;;2.20;;
73107;SDS011;61559;50.476;15.588;2023-04-24T13:42:03;3.90;;;2.30;;
73107;SDS011;61559;50.476;15.588;2023-04-24T13:44:34;5.00;;;3.30;;
73107;SDS011;61559;50.476;15.588;2023-04-24T13:47:05;2.60;;;2.00;;
73107;SDS011;61559;50.476;15.588;2023-04-24T13:49:36;3.60;;;2.40;;
73107;SDS011;61559;50.476;15.588;2023-04-24T13:52:08;1.80;;;1.60;;
73107;SDS011;61559;50.476;15.588;2023-04-24T13:54:39;3.20;;;1.80;;
73107;SDS011;61559;50.476;15.588;2023-04-24T13:57:10;2.70;;;1.80;;
73107;SDS011;61559;50.476;15.588;2023-04-24T13:59:43;1.90;;;1.50;;
73107;SDS011;61559;50.476;15.588;2023-04-24T14:02:14;2.70;;;1.70;;
73107;SDS011;61559;50.476;15.588;2023-04-24T14:04:45;1.70;;;1.40;;
73107;SDS011;61559;50.476;15.588;2023-04-24T14:07:17;3.80;;;2.40;;
73107;SDS011;61559;50.476;15.588;2023-04-24T14:09:48;1.60;;;1.30;;
73107;SDS011;61559;50.476;15.588;2023-04-24T14:12:19;1.50;;;1.20;;
73107;SDS011;61559;50.476;15.588;2023-04-24T14:14:50;1.30;;;1.10;;
73107;SDS011;61559;50.476;15.588;2023-04-24T14:17:21;3.50;;;2.60;;
73107;SDS011;61559;50.476;15.588;2023-04-24T14:19:52;2.30;;;1.50;;
73107;SDS011;61559;50.476;15.588;2023-04-24T14:22:25;2.40;;;1.50;;
73107;SDS011;61559;50.476;15.588;2023-04-24T14:24:56;2.50;;;1.90;;
73107;SDS011;61559;50.476;15.588;2023-04-24T14:27:28;2.20;;;1.40;;
73107;SDS011;61559;50.476;15.588;2023-04-24T14:29:59;2.00;;;1.20;;
73107;SDS011;61559;50.476;15.588;2023-04-24T14:32:31;2.90;;;1.20;;
73107;SDS011;61559;50.476;15.588;2023-04-24T14:35:02;2.60;;;1.00;;
73107;SDS011;61559;50.476;15.588;2023-04-24T14:37:34;1.00;;;0.90;;
73107;SDS011;61559;50.476;15.588;2023-04-24T14:40:06;1.60;;;1.50;;
73107;SDS011;61559;50.476;15.588;2023-04-24T14:42:59;3.30;;;2.20;;
73107;SDS011;61559;50.476;15.588;2023-04-24T14:45:30;3.20;;;1.90;;
73107;SDS011;61559;50.476;15.588;2023-04-24T14:48:02;2.70;;;2.10;;
73107;SDS011;61559;50.476;15.588;2023-04-24T14:50:33;4.30;;;2.90;;
73107;SDS011;61559;50.476;15.588;2023-04-24T14:53:04;4.00;;;2.20;;
73107;SDS011;61559;50.476;15.588;2023-04-24T14:55:35;4.20;;;3.30;;
73107;SDS011;61559;50.476;15.588;2023-04-24T14:58:07;3.50;;;2.90;;
73107;SDS011;61559;50.476;15.588;2023-04-24T15:00:38;3.60;;;1.50;;
73107;SDS011;61559;50.476;15.588;2023-04-24T15:03:09;6.90;;;3.70;;
73107;SDS011;61559;50.476;15.588;2023-04-24T15:05:41;3.20;;;2.30;;
73107;SDS011;61559;50.476;15.588;2023-04-24T15:08:12;2.20;;;1.50;;
73107;SDS011;61559;50.476;15.588;2023-04-24T15:10:43;2.50;;;2.30;;
73107;SDS011;61559;50.476;15.588;2023-04-24T15:13:15;5.30;;;3.40;;
73107;SDS011;61559;50.476;15.588;2023-04-24T15:15:47;6.50;;;4.50;;
73107;SDS011;61559;50.476;15.588;2023-04-24T15:18:18;3.70;;;2.90;;
73107;SDS011;61559;50.476;15.588;2023-04-24T15:20:49;11.00;;;5.70;;
73107;SDS011;61559;50.476;15.588;2023-04-24T15:23:20;16.20;;;8.50;;
73107;SDS011;61559;50.476;15.588;2023-04-24T15:25:51;16.60;;;8.80;;
73107;SDS011;61559;50.476;15.588;2023-04-24T15:28:23;16.90;;;7.60;;
73107;SDS011;61559;50.476;15.588;2023-04-24T15:30:55;8.10;;;5.10;;
73107;SDS011;61559;50.476;15.588;2023-04-24T15:33:26;10.20;;;7.20;;